Time;durP1;ratioP1;P1;durP2;ratioP2;P2;SDS_P1;SDS_P2;PMS_P1;PMS_P2;Temp;Humidity;BMP_temperature;BMP_pressure;BME280_temperature;BME280_humidity;BME280_pressure;Samples;Min_cycle;Max_cycle;Signal;HPM_P1;HPM_P2
2022/01/10 00:00:45;;;;;;;23.90;11.80;;;;;;;;;;5032183;28;20329;-69
2022/01/10 00:03:11;;;;;;;21.97;12.10;;;;;;;;;;5031674;28;20273;-69
2022/01/10 00:05:37;;;;;;;18.47;11.23;;;;;;;;;;5030821;28;20768;-69
2022/01/10 00:08:04;;;;;;;20.63;11.63;;;;;;;;;;5032470;28;20808;-69
2022/01/10 00:10:31;;;;;;;22.23;12.23;;;;;;;;;;5031326;28;20326;-69
2022/01/10 00:12:58;;;;;;;19.37;11.60;;;;;;;;;;5031354;28;20300;-69
2022/01/10 00:15:25;;;;;;;18.60;11.80;;;;;;;;;;5031726;28;20289;-69
2022/01/10 00:17:52;;;;;;;25.00;12.13;;;;;;;;;;5032665;28;20238;-69
2022/01/10 00:20:19;;;;;;;21.37;13.30;;;;;;;;;;5031864;28;20281;-69
2022/01/10 00:22:49;;;;;;;19.27;11.57;;;;;;;;;;5031584;28;20218;-69
2022/01/10 00:25:17;;;;;;;22.87;12.50;;;;;;;;;;5032238;28;20612;-69
2022/01/10 00:27:44;;;;;;;23.17;12.63;;;;;;;;;;5031107;28;20217;-69
2022/01/10 00:30:11;;;;;;;23.67;12.27;;;;;;;;;;5030977;28;20740;-69
2022/01/10 00:32:40;;;;;;;18.80;12.70;;;;;;;;;;5032129;28;20277;-69
2022/01/10 00:35:08;;;;;;;20.13;12.53;;;;;;;;;;5030021;28;20227;-69
2022/01/10 00:37:35;;;;;;;24.87;11.73;;;;;;;;;;5031224;28;20211;-69
2022/01/10 00:40:02;;;;;;;23.83;12.60;;;;;;;;;;5032614;28;20214;-69
2022/01/10 00:42:30;;;;;;;20.80;12.33;;;;;;;;;;5032251;28;20222;-69
2022/01/10 00:44:59;;;;;;;20.20;13.83;;;;;;;;;;5031204;28;20215;-69
2022/01/10 00:47:26;;;;;;;23.63;14.33;;;;;;;;;;5030447;28;20228;-69
2022/01/10 00:49:53;;;;;;;23.43;12.83;;;;;;;;;;5031860;28;20992;-69
2022/01/10 00:52:21;;;;;;;25.77;14.57;;;;;;;;;;5029592;28;20215;-69
2022/01/10 00:54:48;;;;;;;31.53;15.43;;;;;;;;;;5031504;28;20650;-69
2022/01/10 00:57:14;;;;;;;21.33;13.90;;;;;;;;;;5031431;28;20535;-69
2022/01/10 00:59:41;;;;;;;22.97;14.87;;;;;;;;;;5030915;28;20765;-69
2022/01/10 01:02:07;;;;;;;23.90;14.60;;;;;;;;;;5031062;28;20277;-69
2022/01/10 01:04:34;;;;;;;24.20;14.70;;;;;;;;;;5031549;28;20210;-69
2022/01/10 01:07:01;;;;;;;26.03;14.43;;;;;;;;;;5031120;28;20272;-69
2022/01/10 01:09:30;;;;;;;25.30;16.10;;;;;;;;;;5030118;28;20223;-69
2022/01/10 01:14:53;;;;;;;26.60;16.57;;;;;;;;;;5031298;28;20215;-69
2022/01/10 01:17:36;;;;;;;25.93;15.60;;;;;;;;;;5030417;28;20266;-69
2022/01/10 01:20:27;;;;;;;27.50;16.10;;;;;;;;;;5029617;28;20227;-69
2022/01/10 01:25:39;;;;;;;23.10;16.03;;;;;;;;;;5030996;28;20226;-69
2022/01/10 01:28:05;;;;;;;29.30;18.07;;;;;;;;;;5030227;28;20269;-69
2022/01/10 01:30:32;;;;;;;24.97;16.23;;;;;;;;;;5032648;28;20203;-70
2022/01/10 01:32:59;;;;;;;28.43;17.33;;;;;;;;;;5029031;28;20948;-69
2022/01/10 01:35:26;;;;;;;31.63;16.83;;;;;;;;;;5030582;28;20292;-69
2022/01/10 01:37:52;;;;;;;28.53;17.20;;;;;;;;;;5030145;28;20214;-69
2022/01/10 01:40:21;;;;;;;27.70;16.33;;;;;;;;;;5028960;28;20210;-69
2022/01/10 01:42:48;;;;;;;28.27;16.70;;;;;;;;;;5030484;28;20223;-69
2022/01/10 01:45:16;;;;;;;26.90;16.80;;;;;;;;;;5031515;28;20218;-69
2022/01/10 01:47:43;;;;;;;25.33;16.13;;;;;;;;;;5028735;28;20222;-69
2022/01/10 01:50:10;;;;;;;26.63;16.63;;;;;;;;;;5030623;28;20831;-69
2022/01/10 01:52:37;;;;;;;31.50;18.07;;;;;;;;;;5029325;28;20261;-69
2022/01/10 01:55:04;;;;;;;24.67;17.33;;;;;;;;;;5029095;28;20278;-69
2022/01/10 01:57:32;;;;;;;28.70;18.20;;;;;;;;;;5031177;28;20705;-69
2022/01/10 01:59:58;;;;;;;30.83;17.83;;;;;;;;;;5030171;28;20226;-69
2022/01/10 02:02:25;;;;;;;25.90;17.93;;;;;;;;;;5029618;28;20696;-69
2022/01/10 02:04:51;;;;;;;27.67;17.63;;;;;;;;;;5029179;28;20284;-69
2022/01/10 02:07:18;;;;;;;28.43;18.57;;;;;;;;;;5029872;28;20218;-70
2022/01/10 02:09:44;;;;;;;33.07;18.07;;;;;;;;;;5030944;28;20222;-69
2022/01/10 02:12:11;;;;;;;31.43;18.93;;;;;;;;;;5029651;28;20246;-69
2022/01/10 02:14:40;;;;;;;28.47;16.33;;;;;;;;;;5029008;28;20219;-69
2022/01/10 02:17:07;;;;;;;23.40;19.00;;;;;;;;;;5029690;28;20244;-69
2022/01/10 02:19:33;;;;;;;25.97;18.63;;;;;;;;;;5029557;28;20233;-70
2022/01/10 02:22:01;;;;;;;24.33;17.63;;;;;;;;;;5027873;28;20214;-69
2022/01/10 02:24:27;;;;;;;28.47;17.87;;;;;;;;;;5030262;28;20257;-69
2022/01/10 02:26:54;;;;;;;27.60;18.97;;;;;;;;;;5027531;28;20214;-69
2022/01/10 02:29:20;;;;;;;24.43;18.67;;;;;;;;;;5028075;28;20261;-69
2022/01/10 02:31:48;;;;;;;34.67;18.70;;;;;;;;;;5030345;28;20226;-67
2022/01/10 02:34:18;;;;;;;27.10;18.87;;;;;;;;;;5028180;28;20206;-69
2022/01/10 02:36:44;;;;;;;28.73;17.83;;;;;;;;;;5030271;28;20568;-69
2022/01/10 02:39:12;;;;;;;29.13;18.83;;;;;;;;;;5028973;28;20575;-69
2022/01/10 02:41:40;;;;;;;31.03;18.97;;;;;;;;;;5029369;28;20314;-69
2022/01/10 02:44:10;;;;;;;27.57;17.83;;;;;;;;;;5029276;28;20213;-69
2022/01/10 02:46:38;;;;;;;30.70;19.13;;;;;;;;;;5029642;28;20231;-69
2022/01/10 02:49:09;;;;;;;31.63;20.80;;;;;;;;;;5029241;28;20219;-69
2022/01/10 02:51:36;;;;;;;25.30;20.30;;;;;;;;;;5029340;28;20341;-69
2022/01/10 02:54:02;;;;;;;24.50;18.67;;;;;;;;;;5029188;28;20217;-69
2022/01/10 02:56:30;;;;;;;28.13;18.67;;;;;;;;;;5028901;28;20223;-69
2022/01/10 02:58:56;;;;;;;25.47;18.90;;;;;;;;;;5028068;28;20246;-69
2022/01/10 03:01:23;;;;;;;27.73;18.03;;;;;;;;;;5029859;28;20234;-70
2022/01/10 03:03:49;;;;;;;27.83;19.17;;;;;;;;;;5028015;28;20207;-69
2022/01/10 03:06:16;;;;;;;28.30;20.03;;;;;;;;;;5028749;28;20276;-69
2022/01/10 03:08:43;;;;;;;29.30;20.00;;;;;;;;;;5029808;28;20328;-69
2022/01/10 03:11:09;;;;;;;37.50;22.50;;;;;;;;;;5028477;28;20766;-69
2022/01/10 03:13:37;;;;;;;28.30;19.77;;;;;;;;;;5028884;28;20284;-69
2022/01/10 03:16:03;;;;;;;25.10;19.53;;;;;;;;;;5028172;28;20274;-69
2022/01/10 03:18:30;;;;;;;36.07;21.13;;;;;;;;;;5027701;28;20725;-69
2022/01/10 03:20:56;;;;;;;32.83;19.10;;;;;;;;;;5027112;28;20231;-69
2022/01/10 03:23:22;;;;;;;29.53;20.93;;;;;;;;;;5029571;28;20249;-69
2022/01/10 03:25:49;;;;;;;31.53;20.10;;;;;;;;;;5027928;28;20715;-69
2022/01/10 03:28:15;;;;;;;34.90;21.43;;;;;;;;;;5029278;28;20207;-69
2022/01/10 03:30:43;;;;;;;29.43;20.47;;;;;;;;;;5033347;28;20264;-69
2022/01/10 03:33:10;;;;;;;33.17;22.03;;;;;;;;;;5031990;28;21062;-69
2022/01/10 03:35:37;;;;;;;28.97;19.43;;;;;;;;;;5032175;28;20230;-69
2022/01/10 03:38:04;;;;;;;35.10;19.57;;;;;;;;;;5032499;28;20344;-69
2022/01/10 03:40:31;;;;;;;38.50;23.03;;;;;;;;;;5032935;28;20258;-69
2022/01/10 03:42:58;;;;;;;33.57;20.77;;;;;;;;;;5031234;28;20221;-69
2022/01/10 03:45:24;;;;;;;27.27;21.27;;;;;;;;;;5031430;28;20831;-70
2022/01/10 03:47:52;;;;;;;32.77;22.73;;;;;;;;;;5031127;28;20258;-69
2022/01/10 03:50:18;;;;;;;37.77;25.53;;;;;;;;;;5032677;28;20223;-69
2022/01/10 03:52:44;;;;;;;33.90;20.47;;;;;;;;;;5032502;28;20215;-69
2022/01/10 03:55:12;;;;;;;34.33;21.57;;;;;;;;;;5031614;28;20312;-69
2022/01/10 03:57:38;;;;;;;38.03;23.33;;;;;;;;;;5031527;28;20276;-69
2022/01/10 04:00:08;;;;;;;30.63;21.57;;;;;;;;;;5033835;28;21424;-69
2022/01/10 04:02:35;;;;;;;34.90;22.40;;;;;;;;;;5032015;28;20241;-69
2022/01/10 04:05:04;;;;;;;36.60;23.20;;;;;;;;;;5031464;28;20250;-69
2022/01/10 04:07:30;;;;;;;34.77;22.63;;;;;;;;;;5033381;28;20214;-69
2022/01/10 04:09:57;;;;;;;31.77;22.47;;;;;;;;;;5030901;28;20235;-69
2022/01/10 04:12:24;;;;;;;34.60;21.53;;;;;;;;;;5031720;28;20241;-70
2022/01/10 04:14:51;;;;;;;36.03;23.30;;;;;;;;;;5030253;28;20223;-70
2022/01/10 04:17:17;;;;;;;40.80;22.90;;;;;;;;;;5031732;28;20279;-69
2022/01/10 04:19:44;;;;;;;43.40;26.47;;;;;;;;;;5028560;28;20238;-69
2022/01/10 04:22:12;;;;;;;33.03;22.43;;;;;;;;;;5028732;28;20211;-69
2022/01/10 04:24:38;;;;;;;36.53;23.90;;;;;;;;;;5033301;28;20734;-69
2022/01/10 04:27:05;;;;;;;37.83;24.83;;;;;;;;;;5031728;28;20263;-69
2022/01/10 04:29:31;;;;;;;39.30;24.63;;;;;;;;;;5030838;28;20967;-69
2022/01/10 04:32:00;;;;;;;35.30;22.80;;;;;;;;;;5030223;28;20222;-69
2022/01/10 04:34:26;;;;;;;39.63;24.60;;;;;;;;;;5031944;28;20207;-69
2022/01/10 04:36:52;;;;;;;31.87;23.90;;;;;;;;;;5031975;28;20210;-70
2022/01/10 04:39:20;;;;;;;30.63;22.87;;;;;;;;;;5030605;28;20234;-69
2022/01/10 04:41:47;;;;;;;34.17;24.67;;;;;;;;;;5027995;28;20215;-69
2022/01/10 04:44:13;;;;;;;37.03;26.07;;;;;;;;;;5030905;28;20215;-69
2022/01/10 04:46:40;;;;;;;35.47;21.80;;;;;;;;;;5031596;28;20234;-69
2022/01/10 04:49:12;;;;;;;37.33;25.27;;;;;;;;;;5030548;28;20603;-70
2022/01/10 04:51:38;;;;;;;40.47;25.83;;;;;;;;;;5030394;28;20227;-69
2022/01/10 04:54:05;;;;;;;34.17;25.20;;;;;;;;;;5031762;28;20227;-69
2022/01/10 04:56:34;;;;;;;29.27;23.90;;;;;;;;;;5029728;28;21379;-69
2022/01/10 04:59:01;;;;;;;37.83;26.43;;;;;;;;;;5029709;28;20284;-69
2022/01/10 05:01:27;;;;;;;39.70;25.20;;;;;;;;;;5031176;28;20227;-70
2022/01/10 05:03:54;;;;;;;31.57;22.20;;;;;;;;;;5030573;28;20222;-69
2022/01/10 05:06:20;;;;;;;45.57;26.57;;;;;;;;;;5031006;28;20909;-69
2022/01/10 05:08:47;;;;;;;39.57;25.67;;;;;;;;;;5031875;28;20219;-69
2022/01/10 05:11:13;;;;;;;39.20;25.07;;;;;;;;;;5030342;28;20638;-69
2022/01/10 05:13:41;;;;;;;33.23;24.43;;;;;;;;;;5030975;28;20789;-69
2022/01/10 05:16:07;;;;;;;44.43;27.23;;;;;;;;;;5030489;28;20285;-69
2022/01/10 05:18:34;;;;;;;44.17;26.80;;;;;;;;;;5030220;28;20562;-69
2022/01/10 05:21:00;;;;;;;43.50;27.37;;;;;;;;;;5030478;28;20242;-69
2022/01/10 05:23:26;;;;;;;40.03;27.90;;;;;;;;;;5030853;28;20215;-69
2022/01/10 05:25:53;;;;;;;35.33;27.20;;;;;;;;;;5029776;28;20687;-69
2022/01/10 05:28:19;;;;;;;45.17;27.70;;;;;;;;;;5031107;28;20207;-69
2022/01/10 05:30:49;;;;;;;43.43;31.97;;;;;;;;;;5032379;28;20945;-74
2022/01/10 05:33:16;;;;;;;39.37;26.67;;;;;;;;;;5030778;28;20318;-75
2022/01/10 05:35:45;;;;;;;42.23;27.90;;;;;;;;;;5028712;28;20223;-74
2022/01/10 05:38:12;;;;;;;39.90;28.10;;;;;;;;;;5030791;28;20265;-74
2022/01/10 05:40:40;;;;;;;38.53;26.13;;;;;;;;;;5031384;28;20294;-74
2022/01/10 05:43:07;;;;;;;47.07;30.00;;;;;;;;;;5030014;28;20721;-75
2022/01/10 05:45:34;;;;;;;45.53;30.50;;;;;;;;;;5029926;28;20214;-75
2022/01/10 05:48:07;;;;;;;44.50;27.73;;;;;;;;;;5030603;28;20238;-74
2022/01/10 05:50:35;;;;;;;46.53;30.70;;;;;;;;;;5030040;28;20227;-75
2022/01/10 05:53:03;;;;;;;42.53;28.80;;;;;;;;;;5028311;28;20222;-75
2022/01/10 05:55:30;;;;;;;42.17;29.40;;;;;;;;;;5029411;28;20214;-75
2022/01/10 05:57:57;;;;;;;43.07;28.17;;;;;;;;;;5029606;28;20692;-73
2022/01/10 06:00:23;;;;;;;44.97;28.57;;;;;;;;;;5029932;28;20309;-75
2022/01/10 06:02:50;;;;;;;39.13;26.43;;;;;;;;;;5030178;28;20307;-75
2022/01/10 06:05:18;;;;;;;44.37;27.40;;;;;;;;;;5027556;28;20772;-75
2022/01/10 06:07:45;;;;;;;45.83;30.47;;;;;;;;;;5030895;28;20233;-75
2022/01/10 06:10:11;;;;;;;46.50;27.80;;;;;;;;;;5029797;28;20330;-75
2022/01/10 06:12:38;;;;;;;44.33;28.33;;;;;;;;;;5029862;28;20638;-75
2022/01/10 06:15:05;;;;;;;42.77;28.90;;;;;;;;;;5029621;28;20681;-75
2022/01/10 06:17:31;;;;;;;45.57;30.20;;;;;;;;;;5029530;28;20276;-75
2022/01/10 06:19:59;;;;;;;41.80;29.53;;;;;;;;;;5029357;28;20702;-75
2022/01/10 06:22:27;;;;;;;42.60;31.57;;;;;;;;;;5028815;28;21035;-75
2022/01/10 06:24:54;;;;;;;42.63;29.60;;;;;;;;;;5030333;28;20375;-75
2022/01/10 06:27:20;;;;;;;40.97;28.00;;;;;;;;;;5027818;28;20236;-75
2022/01/10 06:29:47;;;;;;;38.90;27.73;;;;;;;;;;5029306;28;20233;-75
2022/01/10 06:32:13;;;;;;;39.60;28.60;;;;;;;;;;5029609;28;20239;-75
2022/01/10 06:34:40;;;;;;;41.27;26.77;;;;;;;;;;5028900;28;20233;-75
2022/01/10 06:37:06;;;;;;;41.70;26.63;;;;;;;;;;5029371;28;20215;-75
2022/01/10 06:39:34;;;;;;;39.00;26.17;;;;;;;;;;5029185;28;20214;-75
2022/01/10 06:42:00;;;;;;;40.13;25.90;;;;;;;;;;5029585;28;20227;-75
2022/01/10 06:44:27;;;;;;;40.73;26.50;;;;;;;;;;5030348;28;20572;-75
2022/01/10 06:46:54;;;;;;;45.00;27.20;;;;;;;;;;5030613;28;20220;-75
2022/01/10 06:49:20;;;;;;;47.57;30.37;;;;;;;;;;5028689;28;20743;-75
2022/01/10 06:51:47;;;;;;;48.30;30.53;;;;;;;;;;5029122;28;20268;-75
2022/01/10 06:54:13;;;;;;;49.17;30.13;;;;;;;;;;5028664;28;20220;-75
2022/01/10 06:56:41;;;;;;;45.10;30.27;;;;;;;;;;5030193;28;20277;-75
2022/01/10 06:59:08;;;;;;;41.63;28.20;;;;;;;;;;5028311;28;20268;-75
2022/01/10 07:01:35;;;;;;;40.10;28.67;;;;;;;;;;5027896;28;20234;-75
2022/01/10 07:04:01;;;;;;;37.07;25.87;;;;;;;;;;5029914;28;20216;-75
2022/01/10 07:06:27;;;;;;;42.17;28.13;;;;;;;;;;5027974;28;20265;-75
2022/01/10 07:08:54;;;;;;;51.40;32.60;;;;;;;;;;5028652;28;20219;-75
2022/01/10 07:11:20;;;;;;;43.20;32.20;;;;;;;;;;5028796;28;20214;-75
2022/01/10 07:13:48;;;;;;;55.77;34.43;;;;;;;;;;5028217;28;20242;-75
2022/01/10 07:16:15;;;;;;;52.23;32.63;;;;;;;;;;5027619;28;20222;-75
2022/01/10 07:18:41;;;;;;;47.67;30.50;;;;;;;;;;5028006;28;20214;-75
2022/01/10 07:21:07;;;;;;;49.17;29.90;;;;;;;;;;5027384;28;20231;-75
2022/01/10 07:23:34;;;;;;;43.63;31.20;;;;;;;;;;5025070;28;20214;-75
2022/01/10 07:26:00;;;;;;;51.03;31.23;;;;;;;;;;5027100;28;20214;-75
2022/01/10 07:28:27;;;;;;;45.50;30.80;;;;;;;;;;5026480;28;20266;-74
2022/01/10 07:30:57;;;;;;;42.17;28.33;;;;;;;;;;5027799;28;20207;-75
2022/01/10 07:33:23;;;;;;;44.10;29.70;;;;;;;;;;5026727;28;20267;-75
2022/01/10 07:35:49;;;;;;;40.67;27.07;;;;;;;;;;5025291;28;21033;-75
2022/01/10 07:38:16;;;;;;;43.13;28.37;;;;;;;;;;5026321;28;20215;-75
2022/01/10 07:40:42;;;;;;;44.53;27.97;;;;;;;;;;5027857;28;20223;-75
2022/01/10 07:43:09;;;;;;;41.00;27.37;;;;;;;;;;5025753;28;21144;-75
2022/01/10 07:45:35;;;;;;;44.43;29.87;;;;;;;;;;5027071;28;20211;-75
2022/01/10 07:48:04;;;;;;;40.73;27.43;;;;;;;;;;5026134;28;21113;-75
2022/01/10 07:50:31;;;;;;;42.23;29.63;;;;;;;;;;5026745;28;20234;-75
2022/01/10 07:52:57;;;;;;;38.83;28.07;;;;;;;;;;5025860;28;21131;-75
2022/01/10 07:55:23;;;;;;;44.37;28.60;;;;;;;;;;5025037;28;20215;-74
2022/01/10 07:57:50;;;;;;;47.50;31.17;;;;;;;;;;5023438;28;20223;-75
2022/01/10 08:00:16;;;;;;;42.57;27.93;;;;;;;;;;5026461;28;20280;-74
2022/01/10 08:02:43;;;;;;;37.33;26.47;;;;;;;;;;5025691;28;20222;-74
2022/01/10 08:05:11;;;;;;;43.07;29.57;;;;;;;;;;5025820;28;20276;-74
2022/01/10 08:07:38;;;;;;;42.60;30.63;;;;;;;;;;5025903;28;20221;-74
2022/01/10 08:10:06;;;;;;;37.50;26.50;;;;;;;;;;5025715;28;20234;-74
2022/01/10 08:12:32;;;;;;;42.37;27.90;;;;;;;;;;5025210;28;20324;-75
2022/01/10 08:14:58;;;;;;;37.30;26.27;;;;;;;;;;5027692;28;20223;-74
2022/01/10 08:17:25;;;;;;;40.90;29.17;;;;;;;;;;5028440;28;20234;-74
2022/01/10 08:19:52;;;;;;;46.27;29.43;;;;;;;;;;5029752;28;20283;-74
2022/01/10 08:22:20;;;;;;;44.87;31.27;;;;;;;;;;5028449;28;20233;-74
2022/01/10 08:24:47;;;;;;;46.30;29.13;;;;;;;;;;5030569;28;20257;-74
2022/01/10 08:27:14;;;;;;;41.83;29.70;;;;;;;;;;5028429;28;20234;-74
2022/01/10 08:29:41;;;;;;;42.23;28.87;;;;;;;;;;5026747;28;20614;-74
2022/01/10 08:32:09;;;;;;;43.33;29.63;;;;;;;;;;5028789;28;20231;-74
2022/01/10 08:34:35;;;;;;;44.50;29.87;;;;;;;;;;5029589;28;20221;-74
2022/01/10 08:37:02;;;;;;;40.17;27.73;;;;;;;;;;5029345;28;20714;-74
2022/01/10 08:39:29;;;;;;;44.10;29.93;;;;;;;;;;5027815;28;20261;-74
2022/01/10 08:41:56;;;;;;;38.13;28.60;;;;;;;;;;5029014;28;20291;-74
2022/01/10 08:44:22;;;;;;;49.97;32.03;;;;;;;;;;5030123;28;20633;-74
2022/01/10 08:46:49;;;;;;;46.17;29.67;;;;;;;;;;5030724;28;20610;-74
2022/01/10 08:49:15;;;;;;;46.53;29.03;;;;;;;;;;5031397;28;20249;-74
2022/01/10 08:51:43;;;;;;;43.33;29.70;;;;;;;;;;5028548;28;20238;-74
2022/01/10 08:54:10;;;;;;;44.77;30.57;;;;;;;;;;5028301;28;20222;-74
2022/01/10 08:56:38;;;;;;;42.23;30.37;;;;;;;;;;5028093;28;20275;-74
2022/01/10 08:59:05;;;;;;;35.87;28.33;;;;;;;;;;5029680;28;20219;-74
2022/01/10 09:01:32;;;;;;;37.00;26.83;;;;;;;;;;5028977;28;20296;-74
2022/01/10 09:03:59;;;;;;;36.43;27.03;;;;;;;;;;5028058;28;20282;-74
2022/01/10 09:06:26;;;;;;;36.33;26.40;;;;;;;;;;5029263;28;20253;-74
2022/01/10 09:08:53;;;;;;;36.23;29.33;;;;;;;;;;5029596;28;20753;-73
2022/01/10 09:11:19;;;;;;;38.70;29.67;;;;;;;;;;5030621;28;20669;-74
2022/01/10 09:13:47;;;;;;;34.23;27.17;;;;;;;;;;5027868;28;20246;-73
2022/01/10 09:16:14;;;;;;;38.63;30.03;;;;;;;;;;5029394;28;20786;-74
2022/01/10 09:18:41;;;;;;;38.50;27.50;;;;;;;;;;5027432;28;20211;-74
2022/01/10 09:21:08;;;;;;;43.77;29.50;;;;;;;;;;5028235;28;20238;-74
2022/01/10 09:23:34;;;;;;;32.60;26.53;;;;;;;;;;5029591;28;20250;-74
2022/01/10 09:26:00;;;;;;;39.73;28.77;;;;;;;;;;5027936;28;20799;-73
2022/01/10 09:28:27;;;;;;;40.97;29.87;;;;;;;;;;5026277;28;20211;-74
2022/01/10 09:30:55;;;;;;;39.07;28.80;;;;;;;;;;5028104;28;20731;-74
2022/01/10 09:33:21;;;;;;;39.20;32.63;;;;;;;;;;5028863;28;21128;-74
2022/01/10 09:35:47;;;;;;;42.17;31.20;;;;;;;;;;5028836;28;20247;-74
2022/01/10 09:38:14;;;;;;;48.57;31.57;;;;;;;;;;5027164;28;20212;-74
2022/01/10 09:40:41;;;;;;;45.50;33.33;;;;;;;;;;5027848;28;20215;-74
2022/01/10 09:43:07;;;;;;;49.97;33.63;;;;;;;;;;5027155;28;20269;-74
2022/01/10 09:45:34;;;;;;;50.63;35.63;;;;;;;;;;5028692;28;20736;-74
2022/01/10 09:48:02;;;;;;;49.23;34.93;;;;;;;;;;5027198;28;20227;-74
2022/01/10 09:50:28;;;;;;;40.07;32.03;;;;;;;;;;5028329;28;20226;-74
2022/01/10 09:52:55;;;;;;;50.53;33.50;;;;;;;;;;5028714;28;20206;-74
2022/01/10 09:55:21;;;;;;;36.57;28.80;;;;;;;;;;5027515;28;20208;-74
2022/01/10 09:57:47;;;;;;;43.70;31.93;;;;;;;;;;5029034;28;20250;-74
2022/01/10 10:00:16;;;;;;;37.30;27.20;;;;;;;;;;5027102;28;20268;-74
2022/01/10 10:02:42;;;;;;;40.73;29.57;;;;;;;;;;5028494;28;20725;-74
2022/01/10 10:05:12;;;;;;;34.90;28.43;;;;;;;;;;5027693;28;20230;-74
2022/01/10 10:07:39;;;;;;;34.40;26.67;;;;;;;;;;5028016;28;20217;-74
2022/01/10 10:10:11;;;;;;;36.97;26.90;;;;;;;;;;5028070;28;20717;-74
2022/01/10 10:12:38;;;;;;;31.60;26.70;;;;;;;;;;5028224;28;20686;-75
2022/01/10 10:15:07;;;;;;;32.03;25.83;;;;;;;;;;5028860;28;20292;-74
2022/01/10 10:17:34;;;;;;;30.60;24.83;;;;;;;;;;5026980;28;20227;-75
2022/01/10 10:20:01;;;;;;;31.00;27.47;;;;;;;;;;5027366;28;21204;-75
2022/01/10 10:22:29;;;;;;;30.63;26.10;;;;;;;;;;5027538;28;20279;-75
2022/01/10 10:24:56;;;;;;;49.20;32.53;;;;;;;;;;5027120;28;20219;-75
2022/01/10 10:27:23;;;;;;;31.87;26.20;;;;;;;;;;5023966;28;20211;-75
2022/01/10 10:29:50;;;;;;;28.83;24.07;;;;;;;;;;5027185;28;21147;-75
2022/01/10 10:32:16;;;;;;;25.47;22.17;;;;;;;;;;5026719;28;20277;-75
2022/01/10 10:34:43;;;;;;;29.33;22.87;;;;;;;;;;5028192;28;20234;-75
2022/01/10 10:37:12;;;;;;;29.33;22.57;;;;;;;;;;5030022;28;20946;-74
2022/01/10 10:39:41;;;;;;;26.53;22.30;;;;;;;;;;5028253;28;20622;-74
2022/01/10 10:42:11;;;;;;;27.23;21.87;;;;;;;;;;5027851;28;20639;-75
2022/01/10 10:44:38;;;;;;;26.17;21.90;;;;;;;;;;5027753;28;20210;-76
2022/01/10 10:47:05;;;;;;;26.07;21.37;;;;;;;;;;5027273;28;20250;-75
2022/01/10 10:49:35;;;;;;;24.13;19.83;;;;;;;;;;5024612;28;20215;-75
2022/01/10 10:52:05;;;;;;;27.40;20.73;;;;;;;;;;5024601;28;20216;-75
2022/01/10 10:54:33;;;;;;;29.60;20.37;;;;;;;;;;5025437;28;20206;-75
2022/01/10 10:57:03;;;;;;;23.97;20.67;;;;;;;;;;5025707;28;20278;-75
2022/01/10 10:59:31;;;;;;;26.23;19.87;;;;;;;;;;5025683;28;20218;-75
2022/01/10 11:01:59;;;;;;;30.33;20.13;;;;;;;;;;5025934;28;20338;-75
2022/01/10 11:04:26;;;;;;;21.60;18.33;;;;;;;;;;5027283;28;20214;-75
2022/01/10 11:06:52;;;;;;;26.17;20.63;;;;;;;;;;5026124;28;20692;-75
2022/01/10 11:09:19;;;;;;;25.57;21.20;;;;;;;;;;5028992;28;20231;-75
2022/01/10 11:11:47;;;;;;;22.93;19.77;;;;;;;;;;5026331;28;20211;-75
2022/01/10 11:14:16;;;;;;;27.27;21.63;;;;;;;;;;5027535;28;20254;-75
2022/01/10 11:16:44;;;;;;;24.57;19.67;;;;;;;;;;5026074;28;20218;-75
2022/01/10 11:19:13;;;;;;;27.00;22.50;;;;;;;;;;5026337;28;20219;-74
2022/01/10 11:21:40;;;;;;;22.40;19.73;;;;;;;;;;5026260;28;20760;-74
2022/01/10 11:24:08;;;;;;;22.77;18.80;;;;;;;;;;5024893;28;20322;-74
2022/01/10 11:26:38;;;;;;;23.70;18.57;;;;;;;;;;5027632;28;20724;-75
2022/01/10 11:29:08;;;;;;;28.57;21.63;;;;;;;;;;5025223;28;20234;-75
2022/01/10 11:31:37;;;;;;;23.87;19.93;;;;;;;;;;5028639;28;20632;-75
2022/01/10 11:34:04;;;;;;;22.40;19.80;;;;;;;;;;5025697;28;20584;-75
2022/01/10 11:36:30;;;;;;;26.17;19.57;;;;;;;;;;5027792;28;20223;-75
2022/01/10 11:38:58;;;;;;;22.43;19.07;;;;;;;;;;5028013;28;20719;-74
2022/01/10 11:41:26;;;;;;;26.77;19.07;;;;;;;;;;5028066;28;20211;-74
2022/01/10 11:44:03;;;;;;;22.57;20.00;;;;;;;;;;5025709;28;20224;-74
2022/01/10 11:46:37;;;;;;;23.90;19.83;;;;;;;;;;5025135;28;20274;-75
2022/01/10 11:49:05;;;;;;;22.20;19.30;;;;;;;;;;5026393;28;20219;-75
2022/01/10 11:51:34;;;;;;;23.87;19.77;;;;;;;;;;5029641;28;20273;-75
2022/01/10 11:54:22;;;;;;;23.70;19.67;;;;;;;;;;5030805;28;20212;-75
2022/01/10 11:56:51;;;;;;;25.23;19.53;;;;;;;;;;5031155;28;20223;-75
2022/01/10 11:59:21;;;;;;;22.53;17.63;;;;;;;;;;5030820;28;20215;-75
2022/01/10 12:01:53;;;;;;;25.70;18.57;;;;;;;;;;5029857;28;20293;-75
2022/01/10 12:04:21;;;;;;;23.37;19.50;;;;;;;;;;5029940;28;20223;-75
2022/01/10 12:06:48;;;;;;;18.73;16.57;;;;;;;;;;5031103;28;20262;-76
2022/01/10 12:09:15;;;;;;;25.30;17.10;;;;;;;;;;5032255;28;20921;-76
2022/01/10 12:11:45;;;;;;;25.57;18.73;;;;;;;;;;5031410;28;20650;-75
2022/01/10 12:14:11;;;;;;;22.13;17.87;;;;;;;;;;5030282;28;20752;-76
2022/01/10 12:16:39;;;;;;;21.67;19.17;;;;;;;;;;5030588;28;21055;-76
2022/01/10 12:19:07;;;;;;;22.80;18.50;;;;;;;;;;5030562;28;20701;-75
2022/01/10 12:21:34;;;;;;;25.33;18.67;;;;;;;;;;5032915;28;20277;-76
2022/01/10 12:24:01;;;;;;;22.20;19.10;;;;;;;;;;5030328;28;20274;-76
2022/01/10 12:26:28;;;;;;;26.30;18.90;;;;;;;;;;5029167;28;20217;-76
2022/01/10 12:28:58;;;;;;;26.47;18.00;;;;;;;;;;5030100;28;20631;-76
2022/01/10 12:31:28;;;;;;;22.07;18.33;;;;;;;;;;5031210;28;20225;-77
2022/01/10 12:33:56;;;;;;;26.00;19.83;;;;;;;;;;5030498;28;20583;-76
2022/01/10 12:36:25;;;;;;;23.20;17.23;;;;;;;;;;5031269;28;20226;-76
2022/01/10 12:38:54;;;;;;;21.63;17.77;;;;;;;;;;5029039;28;20656;-76
2022/01/10 12:41:21;;;;;;;20.47;18.23;;;;;;;;;;5029426;28;20326;-76
2022/01/10 12:43:49;;;;;;;23.00;17.77;;;;;;;;;;5029554;28;20285;-76
2022/01/10 12:46:16;;;;;;;23.97;20.37;;;;;;;;;;5029612;28;20305;-76
2022/01/10 12:48:43;;;;;;;24.53;19.70;;;;;;;;;;5028866;28;20701;-76
2022/01/10 12:51:10;;;;;;;21.00;18.40;;;;;;;;;;5028964;28;20229;-77
2022/01/10 12:53:38;;;;;;;23.47;18.53;;;;;;;;;;5030360;28;20692;-77
2022/01/10 12:56:05;;;;;;;23.67;18.37;;;;;;;;;;5029084;28;20220;-77
2022/01/10 12:58:33;;;;;;;25.13;18.00;;;;;;;;;;5030670;28;20246;-77
2022/01/10 13:01:08;;;;;;;23.00;18.47;;;;;;;;;;5029053;28;20532;-77
2022/01/10 13:03:34;;;;;;;22.17;17.63;;;;;;;;;;5029378;28;20301;-77
2022/01/10 13:06:02;;;;;;;23.33;19.40;;;;;;;;;;5029007;28;20283;-77
2022/01/10 13:08:31;;;;;;;26.27;19.13;;;;;;;;;;5030394;28;20226;-77
2022/01/10 13:10:58;;;;;;;20.63;18.47;;;;;;;;;;5029967;28;20313;-77
2022/01/10 13:13:25;;;;;;;22.80;18.27;;;;;;;;;;5028318;28;20233;-77
2022/01/10 13:15:51;;;;;;;25.87;19.97;;;;;;;;;;5028731;28;20659;-76
2022/01/10 13:18:19;;;;;;;26.03;20.37;;;;;;;;;;5028144;28;20229;-77
2022/01/10 13:20:55;;;;;;;25.97;20.77;;;;;;;;;;5029484;28;20263;-77
2022/01/10 13:23:24;;;;;;;23.53;19.70;;;;;;;;;;5029112;28;20306;-77
2022/01/10 13:25:55;;;;;;;24.27;20.57;;;;;;;;;;5029799;28;20216;-77
2022/01/10 13:28:22;;;;;;;26.57;21.93;;;;;;;;;;5027587;28;20750;-77
2022/01/10 13:30:52;;;;;;;21.77;19.53;;;;;;;;;;5029876;28;20680;-77
2022/01/10 13:33:21;;;;;;;23.97;20.73;;;;;;;;;;5028661;28;20224;-77
2022/01/10 13:35:56;;;;;;;24.10;20.60;;;;;;;;;;5029789;28;20235;-77
2022/01/10 13:38:26;;;;;;;29.40;20.13;;;;;;;;;;5030618;28;20340;-77
2022/01/10 13:40:53;;;;;;;24.57;19.87;;;;;;;;;;5028052;28;20679;-77
2022/01/10 13:43:21;;;;;;;27.23;21.70;;;;;;;;;;5030522;28;20224;-77
2022/01/10 13:45:52;;;;;;;28.83;19.43;;;;;;;;;;5028673;28;20203;-77
2022/01/10 13:48:20;;;;;;;30.70;20.50;;;;;;;;;;5027038;28;20698;-77
2022/01/10 13:50:50;;;;;;;27.10;21.03;;;;;;;;;;5028016;28;20223;-77
2022/01/10 13:53:22;;;;;;;30.53;23.00;;;;;;;;;;5028854;28;20224;-77
2022/01/10 13:56:08;;;;;;;29.90;23.27;;;;;;;;;;5029769;28;20207;-77
2022/01/10 13:58:36;;;;;;;30.07;21.90;;;;;;;;;;5029112;28;20273;-77
2022/01/10 14:01:06;;;;;;;26.50;22.53;;;;;;;;;;5028726;28;20226;-77
2022/01/10 14:03:34;;;;;;;34.60;23.07;;;;;;;;;;5029346;28;20242;-77
2022/01/10 14:06:09;;;;;;;30.40;22.40;;;;;;;;;;5027756;28;20265;-76
2022/01/10 14:08:38;;;;;;;28.67;22.23;;;;;;;;;;5029088;28;20633;-77
2022/01/10 14:11:05;;;;;;;32.57;22.03;;;;;;;;;;5027348;28;20672;-77
2022/01/10 14:13:32;;;;;;;26.10;21.50;;;;;;;;;;5026919;28;20271;-77
2022/01/10 14:15:59;;;;;;;26.20;21.57;;;;;;;;;;5027390;28;20270;-77
2022/01/10 14:18:27;;;;;;;28.83;22.90;;;;;;;;;;5027778;28;20586;-77
2022/01/10 14:20:54;;;;;;;26.60;23.03;;;;;;;;;;5028836;28;20285;-77
2022/01/10 14:23:20;;;;;;;32.63;24.33;;;;;;;;;;5026438;28;20238;-77